createdAt,value
2023-04-10T03:52:01.399Z,100960.09
2023-04-10T03:53:36.275Z,100952.59
2023-04-10T04:55:37.777Z,100967.66
2023-04-10T05:00:56.930Z,100972.53
2023-04-10T05:02:06.826Z,100977.63
2023-04-10T05:03:29.391Z,100974.34
2023-04-10T05:04:59.016Z,100974.00
2023-04-10T05:06:16.530Z,100973.41
2023-04-10T05:07:29.852Z,100979.22
2023-04-10T05:08:55.472Z,100977.28
2023-04-10T05:10:18.172Z,100971.56
2023-04-10T05:11:43.370Z,100969.94
2023-04-10T05:13:17.471Z,100971.84
2023-04-10T05:14:30.424Z,100961.56
2023-04-10T05:15:46.117Z,100969.03
2023-04-10T05:17:08.278Z,100973.63
2023-04-10T05:18:37.235Z,100964.78
2023-04-10T05:19:59.445Z,100976.47
2023-04-10T05:21:32.844Z,100968.94
2023-04-10T05:22:43.983Z,100972.00
2023-04-10T05:24:20.026Z,100971.75
2023-04-10T05:25:53.870Z,100980.28
2023-04-10T05:27:12.025Z,100976.81
2023-04-10T05:28:42.213Z,100980.31
2023-04-10T05:30:06.939Z,100987.84
2023-04-10T05:31:16.693Z,100984.06
2023-04-10T05:33:07.089Z,100978.34
2023-04-10T05:34:17.609Z,100978.25
2023-04-10T05:35:38.079Z,100982.13
2023-04-10T05:37:13.093Z,100976.22
2023-04-10T05:38:38.479Z,100987.84
2023-04-10T05:40:08.392Z,100985.31
2023-04-10T05:41:25.252Z,100983.97
2023-04-10T05:43:02.259Z,100984.06
2023-04-10T05:44:10.769Z,100989.31
2023-04-10T05:45:34.294Z,100996.38
2023-04-10T05:46:50.497Z,101003.53
2023-04-10T05:48:18.947Z,100995.28
2023-04-10T05:49:51.098Z,100989.28
2023-04-10T05:50:52.982Z,100991.59
2023-04-10T05:52:09.535Z,100999.09
2023-04-10T05:53:33.100Z,100997.09
2023-04-10T05:54:53.375Z,100987.72
2023-04-10T05:56:07.817Z,100992.56
2023-04-10T05:57:18.230Z,100991.91
2023-04-10T05:58:32.220Z,100987.31
2023-04-10T05:59:49.336Z,100989.94
2023-04-10T06:01:14.992Z,100989.25
2023-04-10T06:02:29.486Z,100996.56
2023-04-10T06:03:31.880Z,100992.41
2023-04-10T06:04:36.819Z,100995.84
2023-04-10T06:05:38.940Z,100990.66
2023-04-10T06:06:42.633Z,100998.13
2023-04-10T06:07:46.038Z,100987.50
2023-04-10T06:08:50.968Z,100994.03
2023-04-10T06:09:52.826Z,100983.91
2023-04-10T06:10:54.772Z,100986.75
2023-04-10T06:11:56.834Z,100982.41
2023-04-10T06:13:00.931Z,100989.13
2023-04-10T06:14:03.105Z,100988.22
2023-04-10T06:15:11.798Z,100991.66
2023-04-10T06:16:15.488Z,100990.59
2023-04-10T06:17:21.280Z,100990.66
2023-04-10T06:18:29.157Z,100990.88
2023-04-10T06:19:31.830Z,100995.44
2023-04-10T06:20:36.800Z,100992.56
2023-04-10T06:21:38.732Z,100992.56
2023-04-10T06:22:41.705Z,100988.09
2023-04-10T06:23:44.029Z,100978.28
2023-04-10T06:24:47.426Z,100986.63
2023-04-10T06:25:49.525Z,100986.84
2023-04-10T06:26:54.772Z,100987.56
2023-04-10T06:27:57.513Z,100990.06
2023-04-10T06:29:00.540Z,100982.38
2023-04-10T06:30:03.867Z,100989.72
2023-04-10T06:31:08.886Z,100984.91
2023-04-10T06:32:12.445Z,100988.53
2023-04-10T06:33:16.350Z,100990.31
2023-04-10T06:34:19.974Z,100988.22
2023-04-10T06:35:31.836Z,100989.00
2023-04-10T06:36:33.789Z,100983.28
2023-04-10T06:37:39.079Z,100987.97
2023-04-10T06:38:40.993Z,100984.19
2023-04-10T06:39:42.866Z,100989.38
2023-04-10T06:40:44.736Z,100987.19
2023-04-10T06:41:46.554Z,100988.69
2023-04-10T06:42:59.760Z,100983.34
2023-04-10T06:44:19.204Z,100991.22
2023-04-10T06:45:21.693Z,100989.75
2023-04-10T06:46:23.624Z,100997.31
2023-04-10T06:47:25.685Z,100989.34
2023-04-10T06:48:28.592Z,100990.31
2023-04-10T06:49:31.013Z,100993.81
2023-04-10T06:50:33.491Z,100999.28
2023-04-10T06:51:35.869Z,100996.94
2023-04-10T06:52:38.154Z,100996.53
2023-04-10T06:53:39.989Z,100996.53
2023-04-10T06:54:41.911Z,100998.69
2023-04-10T06:55:43.655Z,100990.84
2023-04-10T06:56:45.466Z,100998.00
2023-04-10T06:57:47.816Z,100992.38
2023-04-10T06:58:49.663Z,100994.03
2023-04-10T06:59:51.590Z,100997.88
2023-04-10T07:00:54.651Z,100996.69
2023-04-10T07:01:56.592Z,100998.34
2023-04-10T07:02:58.832Z,100998.34
2023-04-10T07:04:00.971Z,100995.44
2023-04-10T07:05:03.234Z,100996.25
2023-04-10T07:06:06.793Z,100995.63
2023-04-10T07:07:13.015Z,100996.44
2023-04-10T07:08:16.995Z,101001.09
2023-04-10T07:09:26.464Z,101001.13
2023-04-10T07:10:28.586Z,101002.97
2023-04-10T07:11:30.436Z,100996.50
2023-04-10T07:12:33.707Z,100995.81
2023-04-10T07:13:41.359Z,100996.84
2023-04-10T07:14:45.451Z,100998.81
2023-04-10T07:17:03.296Z,100998.13
2023-04-10T07:18:07.625Z,100998.16
2023-04-10T07:19:09.642Z,100997.34
2023-04-10T07:20:11.948Z,100990.06
2023-04-10T07:21:13.893Z,100998.13
2023-04-10T07:22:16.001Z,100997.38
2023-04-10T07:23:20.521Z,100991.59
2023-04-10T07:24:22.629Z,100996.94
2023-04-10T07:25:24.451Z,100998.16
2023-04-10T07:26:26.280Z,100995.28
2023-04-10T07:27:28.366Z,101002.84
2023-04-10T07:28:30.354Z,100995.28
2023-04-10T07:29:32.302Z,101003.22
2023-04-10T07:30:34.224Z,101007.41
2023-04-10T07:31:36.399Z,101001.97
2023-04-10T07:32:40.057Z,101005.44
2023-04-10T07:33:42.287Z,100999.81
2023-04-10T07:34:44.813Z,101002.41
2023-04-10T07:35:46.668Z,101001.25
2023-04-10T07:36:48.448Z,100997.38
2023-04-10T07:37:52.582Z,101000.94
2023-04-10T07:38:55.665Z,101004.22
2023-04-10T07:39:57.660Z,101005.72
2023-04-10T07:40:59.805Z,100998.31
2023-04-10T07:42:01.971Z,100993.38
2023-04-10T07:43:04.143Z,100994.06
2023-04-10T07:44:06.308Z,100998.06
2023-04-10T07:45:08.816Z,100991.78
2023-04-10T07:46:11.279Z,100992.66
2023-04-10T07:47:13.152Z,100994.28
2023-04-10T07:48:16.221Z,100995.09
2023-04-10T07:49:18.553Z,100992.66
2023-04-10T07:50:20.492Z,100989.84
2023-04-10T07:51:22.787Z,100993.13
2023-04-10T07:52:24.850Z,100999.16
2023-04-10T07:53:28.242Z,100989.59
2023-04-10T07:54:34.436Z,100989.94
2023-04-10T07:55:40.448Z,100993.47
2023-04-10T07:56:42.695Z,100985.50
2023-04-10T07:57:44.888Z,100987.94
2023-04-10T07:58:49.999Z,100987.88
2023-04-10T07:59:53.322Z,100987.81
2023-04-10T08:00:55.777Z,100989.38
2023-04-10T08:02:00.561Z,100994.66
2023-04-10T08:03:56.488Z,100996.19
2023-04-10T08:04:58.870Z,100997.34
2023-04-10T08:06:01.232Z,100990.59
2023-04-10T08:07:03.357Z,100988.16
2023-04-10T08:08:05.808Z,100992.53
2023-04-10T08:09:07.787Z,100992.59
2023-04-10T08:10:16.449Z,100995.78
2023-04-10T08:11:47.286Z,100993.56
2023-04-10T08:12:49.544Z,100979.16
2023-04-10T08:13:55.370Z,100983.53
2023-04-10T08:14:57.786Z,100987.94
2023-04-10T08:16:00.561Z,100980.72
2023-04-10T08:19:49.285Z,100988.75
2023-04-10T08:20:51.345Z,100993.53
2023-04-10T08:21:53.751Z,100979.50
2023-04-10T08:26:58.239Z,100987.88
2023-04-10T08:31:48.905Z,100976.78
2023-04-10T08:32:52.457Z,100989.56
2023-04-10T08:36:31.901Z,100983.97
2023-04-10T08:37:34.038Z,100982.34
2023-04-10T08:38:36.102Z,100979.91
2023-04-10T08:39:39.162Z,100987.00
2023-04-10T08:44:21.192Z,100982.22
2023-04-10T08:45:23.134Z,100988.63
2023-04-10T08:46:26.499Z,100979.91
2023-04-10T08:47:29.946Z,100979.06
2023-04-10T08:49:00.927Z,100969.47
2023-04-10T08:50:07.259Z,100974.66
2023-04-10T08:51:19.995Z,100978.31
2023-04-10T08:52:25.785Z,100971.09
2023-04-10T08:53:31.872Z,100971.13
2023-04-10T08:54:36.021Z,100976.69
2023-04-10T08:55:41.189Z,100972.72
2023-04-10T08:56:49.822Z,100975.91
2023-04-10T08:58:00.621Z,100976.69
2023-04-10T08:59:05.815Z,100971.09
2023-04-10T09:02:31.563Z,100970.72
2023-04-10T09:03:34.530Z,100965.78
2023-04-10T09:04:36.877Z,100977.38
2023-04-10T09:05:39.498Z,100978.59
2023-04-10T09:06:42.736Z,100972.66
2023-04-10T09:07:45.567Z,100982.16
2023-04-10T09:10:04.064Z,100971.88
2023-04-10T09:11:08.080Z,100970.66
2023-04-10T09:12:12.111Z,100969.34
2023-04-10T09:13:36.691Z,100976.59
2023-04-10T09:14:38.827Z,100975.25
2023-04-10T09:16:00.557Z,100971.16
2023-04-10T09:17:36.806Z,100973.53
2023-04-10T09:36:35.222Z,100965.88
2023-04-10T09:48:11.953Z,100953.38
2023-04-10T09:49:14.663Z,100943.72
2023-04-10T09:50:16.895Z,100951.34
2023-04-10T09:53:51.738Z,100959.63
2023-04-10T09:55:00.393Z,100947.06
2023-04-10T09:56:05.489Z,100947.00
2023-04-10T09:57:14.309Z,100943.16
2023-04-10T09:58:17.076Z,100948.81
2023-04-10T10:06:01.780Z,100951.19
2023-04-10T10:07:14.129Z,100948.78
2023-04-10T10:08:17.189Z,100946.47
2023-04-10T10:09:38.914Z,100945.59
2023-04-10T10:11:10.597Z,100935.19
2023-04-10T10:12:21.825Z,100944.81
2023-04-10T10:14:01.726Z,100949.22
2023-04-10T10:19:43.113Z,100947.59
2023-04-10T10:20:48.606Z,100951.09
2023-04-10T10:21:54.655Z,100946.34
2023-04-10T10:22:58.725Z,100947.56
2023-04-10T10:24:03.549Z,100939.97
2023-04-10T10:25:07.057Z,100941.56
2023-04-10T10:26:10.513Z,100946.31
2023-04-10T10:27:26.485Z,100943.97
2023-04-10T10:28:31.694Z,100939.94
2023-04-10T10:34:22.960Z,100932.88
2023-04-10T10:35:39.697Z,100931.22
2023-04-10T10:37:18.994Z,100936.41
2023-04-10T10:44:57.548Z,100922.50
2023-04-10T10:46:27.944Z,100922.50
2023-04-10T12:04:21.519Z,100888.19
2023-04-10T12:05:27.935Z,100888.19
2023-04-10T12:06:31.888Z,100888.97
2023-04-10T12:13:35.452Z,100885.41
2023-04-10T12:34:49.946Z,100908.88
2023-04-10T12:46:20.390Z,100911.63
2023-04-10T12:52:31.248Z,100913.94
2023-04-10T13:00:37.569Z,100912.13
2023-04-10T14:07:02.785Z,100889.72
2023-04-10T14:08:07.191Z,100892.59
2023-04-10T14:12:37.882Z,100892.47
2023-04-10T14:13:41.998Z,100894.53
2023-04-10T14:18:37.532Z,100890.63
2023-04-10T14:23:28.145Z,100878.84
2023-04-10T14:27:52.342Z,100871.97
2023-04-10T14:29:01.346Z,100874.50
2023-04-10T14:47:45.362Z,100858.41
2023-04-10T14:49:09.463Z,100859.63
2023-04-10T14:50:44.181Z,100854.41
2023-04-10T14:57:17.351Z,100857.09
2023-04-10T15:21:01.950Z,100850.88
2023-04-10T15:43:15.199Z,100830.69
2023-04-10T15:48:40.518Z,100825.78
2023-04-10T15:50:26.031Z,100822.59
2023-04-10T15:52:55.218Z,100826.50
2023-04-10T15:55:42.425Z,100820.22
2023-04-10T15:59:00.031Z,100823.25
2023-04-10T16:01:06.491Z,100823.56
2023-04-10T16:03:23.559Z,100829.59
2023-04-10T16:04:39.870Z,100821.06
2023-04-10T16:07:25.349Z,100813.50
2023-04-10T16:12:25.687Z,100812.72
2023-04-10T16:13:50.538Z,100818.69
2023-04-10T16:19:27.881Z,100816.28
2023-04-10T16:25:06.149Z,100805.63
2023-04-10T16:26:40.176Z,100813.19
2023-04-10T16:28:07.246Z,100809.28
2023-04-10T16:33:54.461Z,100803.69
2023-04-10T16:50:23.534Z,100805.84
2023-04-10T16:51:29.982Z,100806.13
2023-04-10T16:58:35.509Z,100796.66
2023-04-10T17:00:23.099Z,100799.44
2023-04-10T17:01:44.423Z,100799.88
2023-04-10T17:02:59.576Z,100803.81
2023-04-10T17:04:23.073Z,100809.69
2023-04-10T17:10:01.726Z,100807.88
2023-04-10T17:11:43.910Z,100802.91
2023-04-10T17:16:25.795Z,100803.53
2023-04-10T17:17:49.281Z,100812.34
2023-04-10T17:19:01.077Z,100805.63
2023-04-10T17:29:15.001Z,100799.13
2023-04-10T17:30:51.629Z,100808.88
2023-04-10T17:32:18.061Z,100807.22
2023-04-10T17:33:26.351Z,100807.09
2023-04-10T17:34:54.951Z,100802.31
2023-04-10T17:36:16.310Z,100797.59
2023-04-10T17:37:25.667Z,100804.25
2023-04-10T17:38:32.273Z,100799.53
2023-04-10T21:12:52.182Z,100754.09
